sensor_id;sensor_type;location;lat;lon;timestamp;P1;durP1;ratioP1;P2;durP2;ratioP2
59074;SDS011;44860;53.020;6.738;2023-10-31T00:01:14;10.57;;;7.60;;
59074;SDS011;44860;53.020;6.738;2023-10-31T00:03:43;10.05;;;7.43;;
59074;SDS011;44860;53.020;6.738;2023-10-31T00:06:09;9.57;;;7.75;;
59074;SDS011;44860;53.020;6.738;2023-10-31T00:08:35;10.77;;;7.50;;
59074;SDS011;44860;53.020;6.738;2023-10-31T00:11:01;12.55;;;7.95;;
59074;SDS011;44860;53.020;6.738;2023-10-31T00:13:27;10.77;;;7.55;;
59074;SDS011;44860;53.020;6.738;2023-10-31T00:15:52;10.55;;;7.60;;
59074;SDS011;44860;53.020;6.738;2023-10-31T00:18:18;12.52;;;7.38;;
59074;SDS011;44860;53.020;6.738;2023-10-31T00:20:44;8.30;;;5.60;;
59074;SDS011;44860;53.020;6.738;2023-10-31T00:23:14;7.97;;;5.85;;
59074;SDS011;44860;53.020;6.738;2023-10-31T00:25:40;8.77;;;6.43;;
59074;SDS011;44860;53.020;6.738;2023-10-31T00:28:06;10.35;;;6.47;;
59074;SDS011;44860;53.020;6.738;2023-10-31T00:30:32;8.98;;;6.38;;
59074;SDS011;44860;53.020;6.738;2023-10-31T00:32:58;10.18;;;6.38;;
59074;SDS011;44860;53.020;6.738;2023-10-31T00:35:23;7.88;;;6.15;;
59074;SDS011;44860;53.020;6.738;2023-10-31T00:37:49;10.02;;;6.30;;
59074;SDS011;44860;53.020;6.738;2023-10-31T00:40:14;7.88;;;6.32;;
59074;SDS011;44860;53.020;6.738;2023-10-31T00:42:45;10.30;;;6.22;;
59074;SDS011;44860;53.020;6.738;2023-10-31T00:45:10;7.88;;;5.07;;
59074;SDS011;44860;53.020;6.738;2023-10-31T00:47:36;6.65;;;4.40;;
59074;SDS011;44860;53.020;6.738;2023-10-31T00:50:02;6.65;;;3.95;;
59074;SDS011;44860;53.020;6.738;2023-10-31T00:52:28;5.32;;;3.60;;
59074;SDS011;44860;53.020;6.738;2023-10-31T00:54:54;3.50;;;2.88;;
59074;SDS011;44860;53.020;6.738;2023-10-31T00:57:19;4.32;;;2.53;;
59074;SDS011;44860;53.020;6.738;2023-10-31T00:59:48;3.00;;;2.20;;
59074;SDS011;44860;53.020;6.738;2023-10-31T01:02:14;2.83;;;2.20;;
59074;SDS011;44860;53.020;6.738;2023-10-31T01:04:39;2.95;;;1.77;;
59074;SDS011;44860;53.020;6.738;2023-10-31T01:07:05;2.75;;;1.60;;
59074;SDS011;44860;53.020;6.738;2023-10-31T01:09:31;2.00;;;1.35;;
59074;SDS011;44860;53.020;6.738;2023-10-31T01:11:57;1.60;;;1.30;;
59074;SDS011;44860;53.020;6.738;2023-10-31T01:14:22;1.30;;;1.20;;
59074;SDS011;44860;53.020;6.738;2023-10-31T01:16:48;2.33;;;1.10;;
59074;SDS011;44860;53.020;6.738;2023-10-31T01:19:15;1.10;;;1.00;;
59074;SDS011;44860;53.020;6.738;2023-10-31T01:21:41;1.60;;;1.10;;
59074;SDS011;44860;53.020;6.738;2023-10-31T01:24:06;1.48;;;1.13;;
59074;SDS011;44860;53.020;6.738;2023-10-31T01:26:32;1.60;;;1.00;;
59074;SDS011;44860;53.020;6.738;2023-10-31T01:28:58;1.92;;;1.10;;
59074;SDS011;44860;53.020;6.738;2023-10-31T01:31:24;0.90;;;0.90;;
59074;SDS011;44860;53.020;6.738;2023-10-31T01:33:49;1.00;;;0.90;;
59074;SDS011;44860;53.020;6.738;2023-10-31T01:36:15;3.63;;;1.10;;
59074;SDS011;44860;53.020;6.738;2023-10-31T01:38:43;2.20;;;1.10;;
59074;SDS011;44860;53.020;6.738;2023-10-31T01:41:11;4.35;;;1.33;;
59074;SDS011;44860;53.020;6.738;2023-10-31T01:43:37;2.58;;;1.00;;
59074;SDS011;44860;53.020;6.738;2023-10-31T01:46:03;4.18;;;1.20;;
59074;SDS011;44860;53.020;6.738;2023-10-31T01:48:30;4.30;;;1.15;;
59074;SDS011;44860;53.020;6.738;2023-10-31T01:50:58;3.20;;;1.10;;
59074;SDS011;44860;53.020;6.738;2023-10-31T01:53:28;4.60;;;1.10;;
59074;SDS011;44860;53.020;6.738;2023-10-31T01:55:55;4.72;;;1.20;;
59074;SDS011;44860;53.020;6.738;2023-10-31T01:58:23;3.50;;;1.00;;
59074;SDS011;44860;53.020;6.738;2023-10-31T02:00:54;2.73;;;1.00;;
59074;SDS011;44860;53.020;6.738;2023-10-31T02:03:21;3.70;;;1.13;;
59074;SDS011;44860;53.020;6.738;2023-10-31T02:05:47;3.30;;;1.08;;
59074;SDS011;44860;53.020;6.738;2023-10-31T02:08:12;2.42;;;0.98;;
59074;SDS011;44860;53.020;6.738;2023-10-31T02:10:38;3.85;;;1.05;;
59074;SDS011;44860;53.020;6.738;2023-10-31T02:13:11;3.65;;;1.08;;
59074;SDS011;44860;53.020;6.738;2023-10-31T02:15:37;2.83;;;0.90;;
59074;SDS011;44860;53.020;6.738;2023-10-31T02:18:03;4.95;;;1.20;;
59074;SDS011;44860;53.020;6.738;2023-10-31T02:20:29;5.07;;;1.30;;
59074;SDS011;44860;53.020;6.738;2023-10-31T02:22:55;3.92;;;1.20;;
59074;SDS011;44860;53.020;6.738;2023-10-31T02:25:24;5.80;;;1.33;;
59074;SDS011;44860;53.020;6.738;2023-10-31T02:27:49;2.88;;;1.00;;
59074;SDS011;44860;53.020;6.738;2023-10-31T02:30:15;4.88;;;1.10;;
59074;SDS011;44860;53.020;6.738;2023-10-31T02:32:44;3.55;;;1.15;;
59074;SDS011;44860;53.020;6.738;2023-10-31T02:35:10;4.50;;;1.42;;
59074;SDS011;44860;53.020;6.738;2023-10-31T02:37:35;4.03;;;1.45;;
59074;SDS011;44860;53.020;6.738;2023-10-31T02:40:01;3.88;;;1.60;;
59074;SDS011;44860;53.020;6.738;2023-10-31T02:42:27;4.90;;;1.55;;
59074;SDS011;44860;53.020;6.738;2023-10-31T02:44:53;4.88;;;1.20;;
59074;SDS011;44860;53.020;6.738;2023-10-31T02:47:22;2.78;;;1.38;;
59074;SDS011;44860;53.020;6.738;2023-10-31T02:49:47;4.68;;;1.38;;
59074;SDS011;44860;53.020;6.738;2023-10-31T02:52:13;5.32;;;1.30;;
59074;SDS011;44860;53.020;6.738;2023-10-31T02:54:38;4.72;;;1.23;;
59074;SDS011;44860;53.020;6.738;2023-10-31T02:57:04;5.22;;;1.25;;
59074;SDS011;44860;53.020;6.738;2023-10-31T02:59:30;6.07;;;1.42;;
59074;SDS011;44860;53.020;6.738;2023-10-31T03:01:56;5.25;;;1.30;;
59074;SDS011;44860;53.020;6.738;2023-10-31T03:04:23;4.80;;;1.30;;
59074;SDS011;44860;53.020;6.738;2023-10-31T03:06:48;3.47;;;1.00;;
59074;SDS011;44860;53.020;6.738;2023-10-31T03:09:14;5.00;;;1.27;;
59074;SDS011;44860;53.020;6.738;2023-10-31T03:11:40;6.05;;;1.98;;
59074;SDS011;44860;53.020;6.738;2023-10-31T03:14:06;6.88;;;1.83;;
59074;SDS011;44860;53.020;6.738;2023-10-31T03:16:32;4.57;;;1.80;;
59074;SDS011;44860;53.020;6.738;2023-10-31T03:19:01;9.13;;;2.30;;
59074;SDS011;44860;53.020;6.738;2023-10-31T03:21:26;5.13;;;1.90;;
59074;SDS011;44860;53.020;6.738;2023-10-31T03:23:52;6.60;;;2.22;;
59074;SDS011;44860;53.020;6.738;2023-10-31T03:26:20;6.55;;;2.40;;
59074;SDS011;44860;53.020;6.738;2023-10-31T03:28:46;5.40;;;1.92;;
59074;SDS011;44860;53.020;6.738;2023-10-31T03:31:12;4.18;;;2.47;;
59074;SDS011;44860;53.020;6.738;2023-10-31T03:33:38;5.82;;;2.78;;
59074;SDS011;44860;53.020;6.738;2023-10-31T03:36:04;6.32;;;2.95;;
59074;SDS011;44860;53.020;6.738;2023-10-31T03:38:34;8.85;;;3.38;;
59074;SDS011;44860;53.020;6.738;2023-10-31T03:41:00;7.75;;;3.80;;
59074;SDS011;44860;53.020;6.738;2023-10-31T03:43:26;8.10;;;3.97;;
59074;SDS011;44860;53.020;6.738;2023-10-31T03:45:52;8.80;;;4.38;;
59074;SDS011;44860;53.020;6.738;2023-10-31T03:48:18;8.27;;;4.60;;
59074;SDS011;44860;53.020;6.738;2023-10-31T03:50:44;9.63;;;4.55;;
59074;SDS011;44860;53.020;6.738;2023-10-31T03:53:10;10.02;;;4.97;;
59074;SDS011;44860;53.020;6.738;2023-10-31T03:55:35;10.07;;;4.60;;
59074;SDS011;44860;53.020;6.738;2023-10-31T03:58:01;9.43;;;4.85;;
59074;SDS011;44860;53.020;6.738;2023-10-31T04:00:27;9.95;;;4.57;;
59074;SDS011;44860;53.020;6.738;2023-10-31T04:02:52;8.45;;;4.25;;
59074;SDS011;44860;53.020;6.738;2023-10-31T04:05:18;9.93;;;4.50;;
59074;SDS011;44860;53.020;6.738;2023-10-31T04:07:45;7.05;;;4.13;;
59074;SDS011;44860;53.020;6.738;2023-10-31T04:10:11;10.63;;;4.30;;
59074;SDS011;44860;53.020;6.738;2023-10-31T04:12:38;7.00;;;3.80;;
59074;SDS011;44860;53.020;6.738;2023-10-31T04:15:05;9.63;;;3.90;;
59074;SDS011;44860;53.020;6.738;2023-10-31T04:17:35;8.18;;;3.83;;
59074;SDS011;44860;53.020;6.738;2023-10-31T04:20:01;7.05;;;3.80;;
59074;SDS011;44860;53.020;6.738;2023-10-31T04:22:27;8.95;;;3.67;;
59074;SDS011;44860;53.020;6.738;2023-10-31T04:24:53;7.50;;;4.05;;
59074;SDS011;44860;53.020;6.738;2023-10-31T04:27:19;6.60;;;3.00;;
59074;SDS011;44860;53.020;6.738;2023-10-31T04:29:44;6.63;;;2.90;;
59074;SDS011;44860;53.020;6.738;2023-10-31T04:32:10;6.47;;;3.00;;
59074;SDS011;44860;53.020;6.738;2023-10-31T04:34:36;5.95;;;2.90;;
59074;SDS011;44860;53.020;6.738;2023-10-31T04:37:05;7.70;;;3.22;;
59074;SDS011;44860;53.020;6.738;2023-10-31T04:39:30;5.65;;;2.65;;
59074;SDS011;44860;53.020;6.738;2023-10-31T04:41:57;7.18;;;2.90;;
59074;SDS011;44860;53.020;6.738;2023-10-31T04:44:23;6.43;;;2.97;;
59074;SDS011;44860;53.020;6.738;2023-10-31T04:46:49;6.50;;;2.60;;
59074;SDS011;44860;53.020;6.738;2023-10-31T04:49:14;6.68;;;2.58;;
59074;SDS011;44860;53.020;6.738;2023-10-31T04:51:40;4.72;;;2.50;;
59074;SDS011;44860;53.020;6.738;2023-10-31T04:54:07;4.80;;;2.30;;
59074;SDS011;44860;53.020;6.738;2023-10-31T04:56:33;5.28;;;2.05;;
59074;SDS011;44860;53.020;6.738;2023-10-31T04:58:59;3.65;;;2.10;;
59074;SDS011;44860;53.020;6.738;2023-10-31T05:01:24;5.85;;;2.30;;
59074;SDS011;44860;53.020;6.738;2023-10-31T05:03:50;7.63;;;2.28;;
59074;SDS011;44860;53.020;6.738;2023-10-31T05:06:20;3.30;;;1.90;;
59074;SDS011;44860;53.020;6.738;2023-10-31T05:08:47;3.67;;;1.80;;
59074;SDS011;44860;53.020;6.738;2023-10-31T05:11:13;4.75;;;1.90;;
59074;SDS011;44860;53.020;6.738;2023-10-31T05:13:41;3.42;;;2.05;;
59074;SDS011;44860;53.020;6.738;2023-10-31T05:16:07;4.78;;;1.90;;
59074;SDS011;44860;53.020;6.738;2023-10-31T05:18:32;5.82;;;1.67;;
59074;SDS011;44860;53.020;6.738;2023-10-31T05:20:58;3.25;;;1.73;;
59074;SDS011;44860;53.020;6.738;2023-10-31T05:23:24;4.22;;;1.75;;
59074;SDS011;44860;53.020;6.738;2023-10-31T05:25:49;3.28;;;1.20;;
59074;SDS011;44860;53.020;6.738;2023-10-31T05:28:15;3.42;;;1.10;;
59074;SDS011;44860;53.020;6.738;2023-10-31T05:30:41;3.40;;;1.23;;
59074;SDS011;44860;53.020;6.738;2023-10-31T05:33:06;3.80;;;1.25;;
59074;SDS011;44860;53.020;6.738;2023-10-31T05:35:32;2.90;;;1.00;;
59074;SDS011;44860;53.020;6.738;2023-10-31T05:37:58;3.90;;;1.00;;
59074;SDS011;44860;53.020;6.738;2023-10-31T05:40:24;6.55;;;1.17;;
59074;SDS011;44860;53.020;6.738;2023-10-31T05:42:51;3.47;;;1.08;;
59074;SDS011;44860;53.020;6.738;2023-10-31T05:45:17;2.60;;;1.02;;
59074;SDS011;44860;53.020;6.738;2023-10-31T05:47:43;5.60;;;0.93;;
59074;SDS011;44860;53.020;6.738;2023-10-31T05:50:08;4.75;;;1.25;;
59074;SDS011;44860;53.020;6.738;2023-10-31T05:52:34;3.03;;;1.13;;
59074;SDS011;44860;53.020;6.738;2023-10-31T05:55:00;4.00;;;1.25;;
59074;SDS011;44860;53.020;6.738;2023-10-31T05:57:25;2.85;;;1.00;;
59074;SDS011;44860;53.020;6.738;2023-10-31T05:59:51;2.45;;;1.05;;
59074;SDS011;44860;53.020;6.738;2023-10-31T06:02:17;3.33;;;1.13;;
59074;SDS011;44860;53.020;6.738;2023-10-31T06:04:42;1.50;;;1.00;;
59074;SDS011;44860;53.020;6.738;2023-10-31T06:07:10;4.22;;;1.10;;
59074;SDS011;44860;53.020;6.738;2023-10-31T06:09:36;3.38;;;1.10;;
59074;SDS011;44860;53.020;6.738;2023-10-31T06:12:02;2.63;;;1.20;;
59074;SDS011;44860;53.020;6.738;2023-10-31T06:14:28;2.70;;;1.10;;
59074;SDS011;44860;53.020;6.738;2023-10-31T06:16:54;2.55;;;1.27;;
59074;SDS011;44860;53.020;6.738;2023-10-31T06:19:21;4.43;;;1.52;;
59074;SDS011;44860;53.020;6.738;2023-10-31T06:21:47;2.95;;;1.27;;
59074;SDS011;44860;53.020;6.738;2023-10-31T06:24:13;3.75;;;1.50;;
59074;SDS011;44860;53.020;6.738;2023-10-31T06:26:38;2.38;;;1.10;;
59074;SDS011;44860;53.020;6.738;2023-10-31T06:29:05;4.47;;;1.30;;
59074;SDS011;44860;53.020;6.738;2023-10-31T06:31:30;4.70;;;1.60;;
59074;SDS011;44860;53.020;6.738;2023-10-31T06:33:56;3.63;;;1.45;;
59074;SDS011;44860;53.020;6.738;2023-10-31T06:36:22;3.50;;;1.25;;
59074;SDS011;44860;53.020;6.738;2023-10-31T06:38:47;2.70;;;1.40;;
59074;SDS011;44860;53.020;6.738;2023-10-31T06:41:13;3.28;;;1.40;;
59074;SDS011;44860;53.020;6.738;2023-10-31T06:43:39;4.25;;;1.35;;
59074;SDS011;44860;53.020;6.738;2023-10-31T06:46:04;3.38;;;1.23;;
59074;SDS011;44860;53.020;6.738;2023-10-31T06:48:30;4.22;;;1.60;;
59074;SDS011;44860;53.020;6.738;2023-10-31T06:50:56;4.90;;;1.73;;
59074;SDS011;44860;53.020;6.738;2023-10-31T06:53:22;3.13;;;1.50;;
59074;SDS011;44860;53.020;6.738;2023-10-31T06:55:48;3.55;;;1.40;;
59074;SDS011;44860;53.020;6.738;2023-10-31T06:58:13;4.45;;;1.50;;
59074;SDS011;44860;53.020;6.738;2023-10-31T07:00:39;3.10;;;1.63;;
59074;SDS011;44860;53.020;6.738;2023-10-31T07:03:05;3.58;;;1.35;;
59074;SDS011;44860;53.020;6.738;2023-10-31T07:05:37;4.57;;;1.70;;
59074;SDS011;44860;53.020;6.738;2023-10-31T07:08:03;6.30;;;2.00;;
59074;SDS011;44860;53.020;6.738;2023-10-31T07:10:30;5.35;;;2.47;;
59074;SDS011;44860;53.020;6.738;2023-10-31T07:12:56;6.68;;;2.55;;
59074;SDS011;44860;53.020;6.738;2023-10-31T07:15:23;5.03;;;2.63;;
59074;SDS011;44860;53.020;6.738;2023-10-31T07:17:49;3.72;;;2.50;;
59074;SDS011;44860;53.020;6.738;2023-10-31T07:20:15;3.63;;;2.53;;
59074;SDS011;44860;53.020;6.738;2023-10-31T07:22:41;4.40;;;2.40;;
59074;SDS011;44860;53.020;6.738;2023-10-31T07:25:07;7.10;;;3.05;;
59074;SDS011;44860;53.020;6.738;2023-10-31T07:27:33;4.20;;;2.80;;
59074;SDS011;44860;53.020;6.738;2023-10-31T07:29:58;4.63;;;2.47;;
59074;SDS011;44860;53.020;6.738;2023-10-31T07:32:24;5.65;;;2.83;;
59074;SDS011;44860;53.020;6.738;2023-10-31T07:34:50;5.43;;;3.05;;
59074;SDS011;44860;53.020;6.738;2023-10-31T07:37:17;7.75;;;3.03;;
59074;SDS011;44860;53.020;6.738;2023-10-31T07:39:42;6.95;;;3.35;;
59074;SDS011;44860;53.020;6.738;2023-10-31T07:42:08;8.77;;;3.65;;
59074;SDS011;44860;53.020;6.738;2023-10-31T07:44:34;7.22;;;3.70;;
59074;SDS011;44860;53.020;6.738;2023-10-31T07:46:59;8.02;;;3.80;;
59074;SDS011;44860;53.020;6.738;2023-10-31T07:49:25;8.10;;;3.70;;
59074;SDS011;44860;53.020;6.738;2023-10-31T07:51:51;7.95;;;3.60;;
59074;SDS011;44860;53.020;6.738;2023-10-31T07:54:16;6.97;;;3.70;;
59074;SDS011;44860;53.020;6.738;2023-10-31T07:56:42;9.27;;;3.70;;
59074;SDS011;44860;53.020;6.738;2023-10-31T07:59:08;5.85;;;3.33;;
59074;SDS011;44860;53.020;6.738;2023-10-31T08:01:34;5.43;;;3.05;;
59074;SDS011;44860;53.020;6.738;2023-10-31T08:04:00;9.55;;;3.42;;
59074;SDS011;44860;53.020;6.738;2023-10-31T08:06:26;6.38;;;2.97;;
59074;SDS011;44860;53.020;6.738;2023-10-31T08:08:52;6.60;;;2.80;;
59074;SDS011;44860;53.020;6.738;2023-10-31T08:11:18;6.60;;;2.78;;
59074;SDS011;44860;53.020;6.738;2023-10-31T08:13:44;9.27;;;2.55;;
59074;SDS011;44860;53.020;6.738;2023-10-31T08:16:09;3.17;;;2.20;;
59074;SDS011;44860;53.020;6.738;2023-10-31T08:18:35;6.15;;;1.90;;
59074;SDS011;44860;53.020;6.738;2023-10-31T08:21:01;7.72;;;2.00;;
59074;SDS011;44860;53.020;6.738;2023-10-31T08:23:28;7.18;;;1.90;;
59074;SDS011;44860;53.020;6.738;2023-10-31T08:25:54;5.60;;;2.05;;
59074;SDS011;44860;53.020;6.738;2023-10-31T08:28:20;5.50;;;2.33;;
59074;SDS011;44860;53.020;6.738;2023-10-31T08:30:46;9.35;;;2.20;;
59074;SDS011;44860;53.020;6.738;2023-10-31T08:33:12;6.97;;;2.30;;
59074;SDS011;44860;53.020;6.738;2023-10-31T08:35:38;6.32;;;1.85;;
59074;SDS011;44860;53.020;6.738;2023-10-31T08:38:03;5.78;;;1.35;;
59074;SDS011;44860;53.020;6.738;2023-10-31T08:40:29;5.55;;;1.40;;
59074;SDS011;44860;53.020;6.738;2023-10-31T08:42:55;4.78;;;1.17;;
59074;SDS011;44860;53.020;6.738;2023-10-31T08:45:21;6.07;;;1.40;;
59074;SDS011;44860;53.020;6.738;2023-10-31T08:47:46;3.97;;;1.13;;
59074;SDS011;44860;53.020;6.738;2023-10-31T08:50:12;3.97;;;1.00;;
59074;SDS011;44860;53.020;6.738;2023-10-31T08:52:39;3.58;;;1.20;;
59074;SDS011;44860;53.020;6.738;2023-10-31T08:55:05;4.90;;;1.00;;
59074;SDS011;44860;53.020;6.738;2023-10-31T08:57:31;4.50;;;1.00;;
59074;SDS011;44860;53.020;6.738;2023-10-31T08:59:58;4.60;;;1.20;;
59074;SDS011;44860;53.020;6.738;2023-10-31T09:02:24;3.33;;;0.85;;
59074;SDS011;44860;53.020;6.738;2023-10-31T09:04:50;4.10;;;1.00;;
59074;SDS011;44860;53.020;6.738;2023-10-31T09:07:16;3.35;;;0.77;;
59074;SDS011;44860;53.020;6.738;2023-10-31T09:09:41;2.20;;;0.80;;
59074;SDS011;44860;53.020;6.738;2023-10-31T09:12:07;1.08;;;0.90;;
59074;SDS011;44860;53.020;6.738;2023-10-31T09:14:33;3.67;;;1.02;;
59074;SDS011;44860;53.020;6.738;2023-10-31T09:17:00;2.50;;;0.77;;
59074;SDS011;44860;53.020;6.738;2023-10-31T09:19:26;2.70;;;0.80;;
59074;SDS011;44860;53.020;6.738;2023-10-31T09:21:52;2.25;;;0.70;;
59074;SDS011;44860;53.020;6.738;2023-10-31T09:24:17;2.35;;;0.70;;
59074;SDS011;44860;53.020;6.738;2023-10-31T09:26:43;3.97;;;0.73;;
59074;SDS011;44860;53.020;6.738;2023-10-31T09:29:12;3.85;;;0.70;;
59074;SDS011;44860;53.020;6.738;2023-10-31T09:31:38;2.42;;;0.60;;
59074;SDS011;44860;53.020;6.738;2023-10-31T09:34:04;3.35;;;0.70;;
59074;SDS011;44860;53.020;6.738;2023-10-31T09:36:33;3.80;;;0.65;;
59074;SDS011;44860;53.020;6.738;2023-10-31T09:39:01;3.67;;;0.82;;
59074;SDS011;44860;53.020;6.738;2023-10-31T09:41:28;3.70;;;0.80;;
59074;SDS011;44860;53.020;6.738;2023-10-31T09:43:54;4.53;;;0.90;;
59074;SDS011;44860;53.020;6.738;2023-10-31T09:46:21;6.75;;;1.17;;
59074;SDS011;44860;53.020;6.738;2023-10-31T09:48:47;7.57;;;1.23;;
59074;SDS011;44860;53.020;6.738;2023-10-31T09:51:14;5.40;;;1.27;;
59074;SDS011;44860;53.020;6.738;2023-10-31T09:53:41;5.57;;;1.23;;
59074;SDS011;44860;53.020;6.738;2023-10-31T09:56:08;5.90;;;0.90;;
59074;SDS011;44860;53.020;6.738;2023-10-31T09:58:35;6.32;;;1.20;;
59074;SDS011;44860;53.020;6.738;2023-10-31T10:01:00;5.55;;;1.35;;
59074;SDS011;44860;53.020;6.738;2023-10-31T10:03:26;3.72;;;1.92;;
59074;SDS011;44860;53.020;6.738;2023-10-31T10:05:52;4.88;;;1.30;;
59074;SDS011;44860;53.020;6.738;2023-10-31T10:08:19;5.65;;;1.17;;
59074;SDS011;44860;53.020;6.738;2023-10-31T10:10:45;4.82;;;1.23;;
59074;SDS011;44860;53.020;6.738;2023-10-31T10:13:11;5.78;;;1.40;;
59074;SDS011;44860;53.020;6.738;2023-10-31T10:16:11;2.38;;;1.08;;
59074;SDS011;44860;53.020;6.738;2023-10-31T10:18:30;3.92;;;1.00;;
59074;SDS011;44860;53.020;6.738;2023-10-31T10:20:58;3.58;;;1.10;;
59074;SDS011;44860;53.020;6.738;2023-10-31T10:23:25;5.00;;;1.60;;
59074;SDS011;44860;53.020;6.738;2023-10-31T10:25:52;5.47;;;2.17;;
59074;SDS011;44860;53.020;6.738;2023-10-31T10:28:18;6.97;;;1.80;;
59074;SDS011;44860;53.020;6.738;2023-10-31T10:30:45;4.90;;;1.52;;
59074;SDS011;44860;53.020;6.738;2023-10-31T10:33:14;4.75;;;1.00;;
59074;SDS011;44860;53.020;6.738;2023-10-31T10:35:40;4.35;;;0.85;;
59074;SDS011;44860;53.020;6.738;2023-10-31T10:38:10;6.95;;;0.98;;
59074;SDS011;44860;53.020;6.738;2023-10-31T10:40:41;2.90;;;0.90;;
59074;SDS011;44860;53.020;6.738;2023-10-31T10:43:21;5.35;;;1.08;;
59074;SDS011;44860;53.020;6.738;2023-10-31T10:45:55;6.13;;;0.82;;
59074;SDS011;44860;53.020;6.738;2023-10-31T10:48:23;4.05;;;0.90;;
59074;SDS011;44860;53.020;6.738;2023-10-31T10:50:51;5.78;;;0.90;;
59074;SDS011;44860;53.020;6.738;2023-10-31T10:53:39;4.20;;;0.90;;
59074;SDS011;44860;53.020;6.738;2023-10-31T10:56:11;4.40;;;0.80;;
59074;SDS011;44860;53.020;6.738;2023-10-31T10:58:54;5.18;;;0.90;;
59074;SDS011;44860;53.020;6.738;2023-10-31T11:01:25;3.17;;;0.70;;
59074;SDS011;44860;53.020;6.738;2023-10-31T11:03:53;4.25;;;0.77;;
59074;SDS011;44860;53.020;6.738;2023-10-31T11:06:20;4.32;;;0.90;;
59074;SDS011;44860;53.020;6.738;2023-10-31T11:08:46;5.22;;;0.90;;
59074;SDS011;44860;53.020;6.738;2023-10-31T11:11:12;5.80;;;0.90;;
59074;SDS011;44860;53.020;6.738;2023-10-31T11:13:40;3.38;;;0.70;;
59074;SDS011;44860;53.020;6.738;2023-10-31T11:16:11;4.93;;;0.80;;
59074;SDS011;44860;53.020;6.738;2023-10-31T11:18:42;6.78;;;1.02;;
59074;SDS011;44860;53.020;6.738;2023-10-31T11:21:09;4.90;;;0.95;;
59074;SDS011;44860;53.020;6.738;2023-10-31T11:23:35;4.05;;;1.00;;
59074;SDS011;44860;53.020;6.738;2023-10-31T11:26:01;5.20;;;1.00;;
59074;SDS011;44860;53.020;6.738;2023-10-31T11:28:27;5.65;;;1.20;;
59074;SDS011;44860;53.020;6.738;2023-10-31T11:30:53;4.40;;;0.90;;
59074;SDS011;44860;53.020;6.738;2023-10-31T11:33:27;3.15;;;1.00;;
59074;SDS011;44860;53.020;6.738;2023-10-31T11:36:03;6.20;;;1.35;;
59074;SDS011;44860;53.020;6.738;2023-10-31T11:38:36;2.22;;;0.77;;
59074;SDS011;44860;53.020;6.738;2023-10-31T11:41:03;5.28;;;0.80;;
59074;SDS011;44860;53.020;6.738;2023-10-31T11:46:04;4.03;;;0.88;;
59074;SDS011;44860;53.020;6.738;2023-10-31T11:48:49;4.28;;;0.90;;
59074;SDS011;44860;53.020;6.738;2023-10-31T11:51:16;7.28;;;0.90;;
59074;SDS011;44860;53.020;6.738;2023-10-31T11:53:43;5.00;;;0.90;;
59074;SDS011;44860;53.020;6.738;2023-10-31T11:56:09;5.78;;;0.90;;
59074;SDS011;44860;53.020;6.738;2023-10-31T11:58:36;4.93;;;0.93;;
59074;SDS011;44860;53.020;6.738;2023-10-31T12:01:03;5.60;;;1.00;;
59074;SDS011;44860;53.020;6.738;2023-10-31T12:03:39;5.22;;;0.90;;
59074;SDS011;44860;53.020;6.738;2023-10-31T12:06:15;3.50;;;0.80;;
59074;SDS011;44860;53.020;6.738;2023-10-31T12:08:43;3.80;;;0.93;;
59074;SDS011;44860;53.020;6.738;2023-10-31T12:11:13;4.55;;;0.90;;
59074;SDS011;44860;53.020;6.738;2023-10-31T12:13:41;3.47;;;1.13;;
59074;SDS011;44860;53.020;6.738;2023-10-31T12:16:16;3.95;;;0.90;;
59074;SDS011;44860;53.020;6.738;2023-10-31T12:18:43;4.75;;;1.02;;
59074;SDS011;44860;53.020;6.738;2023-10-31T12:21:08;4.00;;;0.80;;
59074;SDS011;44860;53.020;6.738;2023-10-31T12:23:36;9.35;;;1.13;;
59074;SDS011;44860;53.020;6.738;2023-10-31T12:26:01;5.18;;;0.70;;
59074;SDS011;44860;53.020;6.738;2023-10-31T12:28:27;7.15;;;1.10;;
59074;SDS011;44860;53.020;6.738;2023-10-31T12:30:54;4.95;;;1.00;;
59074;SDS011;44860;53.020;6.738;2023-10-31T12:33:21;7.05;;;1.05;;
59074;SDS011;44860;53.020;6.738;2023-10-31T12:35:49;7.82;;;1.25;;
59074;SDS011;44860;53.020;6.738;2023-10-31T12:40:49;5.25;;;1.27;;
59074;SDS011;44860;53.020;6.738;2023-10-31T12:43:16;5.47;;;1.23;;
59074;SDS011;44860;53.020;6.738;2023-10-31T12:45:42;7.68;;;1.33;;
59074;SDS011;44860;53.020;6.738;2023-10-31T12:48:09;5.20;;;1.20;;
59074;SDS011;44860;53.020;6.738;2023-10-31T12:50:37;5.90;;;1.25;;
59074;SDS011;44860;53.020;6.738;2023-10-31T12:53:04;6.82;;;1.13;;
59074;SDS011;44860;53.020;6.738;2023-10-31T12:55:31;9.10;;;1.92;;
59074;SDS011;44860;53.020;6.738;2023-10-31T12:58:03;7.72;;;1.98;;
59074;SDS011;44860;53.020;6.738;2023-10-31T13:00:33;6.05;;;2.10;;
59074;SDS011;44860;53.020;6.738;2023-10-31T13:03:06;9.10;;;2.08;;
59074;SDS011;44860;53.020;6.738;2023-10-31T13:05:33;8.77;;;3.22;;
59074;SDS011;44860;53.020;6.738;2023-10-31T13:08:00;10.20;;;4.57;;
59074;SDS011;44860;53.020;6.738;2023-10-31T13:10:28;10.93;;;4.32;;
59074;SDS011;44860;53.020;6.738;2023-10-31T13:12:54;7.28;;;2.90;;
59074;SDS011;44860;53.020;6.738;2023-10-31T13:15:21;5.10;;;1.83;;
59074;SDS011;44860;53.020;6.738;2023-10-31T13:17:48;4.50;;;1.80;;
59074;SDS011;44860;53.020;6.738;2023-10-31T13:20:15;4.05;;;1.48;;
59074;SDS011;44860;53.020;6.738;2023-10-31T13:22:43;6.15;;;1.65;;
59074;SDS011;44860;53.020;6.738;2023-10-31T13:25:10;6.18;;;1.55;;
59074;SDS011;44860;53.020;6.738;2023-10-31T13:27:37;8.07;;;1.48;;
59074;SDS011;44860;53.020;6.738;2023-10-31T13:30:04;3.85;;;1.10;;
59074;SDS011;44860;53.020;6.738;2023-10-31T13:32:32;7.03;;;1.20;;
59074;SDS011;44860;53.020;6.738;2023-10-31T13:34:57;4.50;;;1.02;;
59074;SDS011;44860;53.020;6.738;2023-10-31T13:37:23;8.20;;;1.80;;
59074;SDS011;44860;53.020;6.738;2023-10-31T13:39:49;6.82;;;1.25;;
59074;SDS011;44860;53.020;6.738;2023-10-31T13:42:15;9.95;;;1.20;;
59074;SDS011;44860;53.020;6.738;2023-10-31T13:44:41;7.00;;;1.40;;
59074;SDS011;44860;53.020;6.738;2023-10-31T13:47:07;7.22;;;1.38;;
59074;SDS011;44860;53.020;6.738;2023-10-31T13:49:32;4.85;;;1.20;;
59074;SDS011;44860;53.020;6.738;2023-10-31T13:51:58;9.85;;;1.70;;
59074;SDS011;44860;53.020;6.738;2023-10-31T13:54:24;7.13;;;1.50;;
59074;SDS011;44860;53.020;6.738;2023-10-31T13:56:50;8.23;;;1.77;;
59074;SDS011;44860;53.020;6.738;2023-10-31T13:59:16;7.95;;;1.40;;
59074;SDS011;44860;53.020;6.738;2023-10-31T14:01:43;7.88;;;1.30;;
59074;SDS011;44860;53.020;6.738;2023-10-31T14:04:11;7.82;;;1.38;;
59074;SDS011;44860;53.020;6.738;2023-10-31T14:06:40;6.93;;;1.25;;
59074;SDS011;44860;53.020;6.738;2023-10-31T14:09:07;5.22;;;1.23;;
59074;SDS011;44860;53.020;6.738;2023-10-31T14:11:34;8.00;;;1.35;;
59074;SDS011;44860;53.020;6.738;2023-10-31T14:14:01;5.15;;;1.30;;
59074;SDS011;44860;53.020;6.738;2023-10-31T14:16:38;9.32;;;1.80;;
59074;SDS011;44860;53.020;6.738;2023-10-31T14:19:04;9.75;;;1.38;;
59074;SDS011;44860;53.020;6.738;2023-10-31T14:21:32;12.23;;;1.65;;
59074;SDS011;44860;53.020;6.738;2023-10-31T14:23:59;9.15;;;1.58;;
59074;SDS011;44860;53.020;6.738;2023-10-31T14:26:26;7.95;;;1.58;;
59074;SDS011;44860;53.020;6.738;2023-10-31T14:28:52;6.40;;;1.50;;
59074;SDS011;44860;53.020;6.738;2023-10-31T14:31:18;11.68;;;1.80;;
59074;SDS011;44860;53.020;6.738;2023-10-31T14:33:45;8.60;;;1.60;;
59074;SDS011;44860;53.020;6.738;2023-10-31T14:36:11;6.03;;;1.67;;
59074;SDS011;44860;53.020;6.738;2023-10-31T14:38:38;10.40;;;1.83;;
59074;SDS011;44860;53.020;6.738;2023-10-31T14:41:04;7.00;;;1.42;;
59074;SDS011;44860;53.020;6.738;2023-10-31T14:43:30;7.75;;;1.48;;
59074;SDS011;44860;53.020;6.738;2023-10-31T14:45:56;9.77;;;1.58;;
59074;SDS011;44860;53.020;6.738;2023-10-31T14:48:22;8.27;;;1.60;;
59074;SDS011;44860;53.020;6.738;2023-10-31T14:50:48;8.38;;;1.70;;